createdAt,value
2022-11-12T00:01:13.915Z,12.82
2022-11-12T00:03:42.240Z,11.38
2022-11-12T00:06:09.962Z,11.98
2022-11-12T00:08:37.945Z,13.00
2022-11-12T00:11:06.094Z,13.05
2022-11-12T00:13:33.762Z,11.68
2022-11-12T00:16:01.373Z,11.40
2022-11-12T00:18:29.301Z,12.50
2022-11-12T00:20:57.245Z,13.30
2022-11-12T00:23:24.914Z,12.27
2022-11-12T00:26:02.989Z,12.30
2022-11-12T00:28:36.352Z,11.80
2022-11-12T00:31:10.545Z,11.90
2022-11-12T00:33:42.325Z,13.02
2022-11-12T00:36:10.851Z,12.65
2022-11-12T00:38:38.513Z,12.88
2022-11-12T00:41:06.370Z,13.45
2022-11-12T00:43:34.046Z,13.25
2022-11-12T00:46:01.678Z,11.77
2022-11-12T00:48:29.478Z,13.02
2022-11-12T00:51:10.145Z,11.93
2022-11-12T00:53:37.815Z,12.75
2022-11-12T00:56:07.686Z,12.65
2022-11-12T00:58:37.205Z,12.27
2022-11-12T01:01:15.669Z,12.13
2022-11-12T01:03:43.968Z,12.30
2022-11-12T01:06:19.892Z,12.63
2022-11-12T01:08:49.426Z,12.48
2022-11-12T01:11:26.494Z,12.60
2022-11-12T01:14:00.528Z,12.52
2022-11-12T01:16:32.218Z,12.55
2022-11-12T01:19:01.635Z,14.13
2022-11-12T01:21:31.534Z,13.73
2022-11-12T01:24:00.737Z,13.77
2022-11-12T01:26:32.051Z,13.77
2022-11-12T01:28:59.911Z,11.85
2022-11-12T01:31:30.162Z,13.68
2022-11-12T01:34:00.487Z,13.05
2022-11-12T01:36:29.802Z,13.38
2022-11-12T01:38:57.598Z,12.40
2022-11-12T01:41:36.096Z,14.07
2022-11-12T01:44:17.378Z,13.35
2022-11-12T01:47:03.616Z,12.90
2022-11-12T01:49:57.503Z,12.80
2022-11-12T01:52:30.976Z,12.13
2022-11-12T01:55:08.753Z,11.98
2022-11-12T01:57:42.643Z,12.57
2022-11-12T02:00:13.556Z,11.77
2022-11-12T02:02:43.599Z,12.27
2022-11-12T02:05:13.120Z,13.15
2022-11-12T02:07:43.276Z,11.57
2022-11-12T02:10:11.380Z,11.32
2022-11-12T02:12:58.570Z,11.73
2022-11-12T02:15:27.412Z,12.13
2022-11-12T02:17:55.152Z,11.05
2022-11-12T02:20:22.929Z,12.13
2022-11-12T02:22:50.621Z,12.25
2022-11-12T02:25:22.029Z,11.45
2022-11-12T02:27:52.968Z,11.55
2022-11-12T02:30:21.301Z,13.35
2022-11-12T02:32:48.927Z,12.32
2022-11-12T02:35:16.624Z,12.55
2022-11-12T02:37:44.248Z,13.13
2022-11-12T02:40:12.063Z,12.80
2022-11-12T02:42:39.629Z,13.65
2022-11-12T02:45:07.587Z,11.80
2022-11-12T02:47:35.261Z,13.40
2022-11-12T02:50:02.943Z,12.48
2022-11-12T02:52:30.551Z,12.23
2022-11-12T02:54:58.237Z,13.85
2022-11-12T02:57:25.942Z,13.15
2022-11-12T02:59:53.521Z,12.77
2022-11-12T03:02:21.147Z,12.75
2022-11-12T03:04:49.673Z,12.45
2022-11-12T03:07:17.702Z,13.68
2022-11-12T03:09:45.347Z,12.43
2022-11-12T03:12:13.022Z,11.98
2022-11-12T03:14:40.613Z,11.82
2022-11-12T03:17:08.277Z,12.37
2022-11-12T03:19:35.967Z,11.77
2022-11-12T03:22:03.575Z,12.37
2022-11-12T03:24:31.176Z,12.48
2022-11-12T03:26:59.744Z,11.52
2022-11-12T03:29:28.012Z,11.63
2022-11-12T03:31:55.638Z,14.50
2022-11-12T03:34:23.240Z,13.15
2022-11-12T03:36:50.973Z,13.62
2022-11-12T03:39:18.620Z,12.75
2022-11-12T03:41:46.281Z,13.32
2022-11-12T03:44:13.924Z,14.70
2022-11-12T03:46:44.160Z,14.70
2022-11-12T03:49:12.317Z,15.85
2022-11-12T03:51:39.935Z,12.82
2022-11-12T03:54:07.733Z,13.57
2022-11-12T03:56:35.385Z,13.15
2022-11-12T03:59:03.162Z,13.40
2022-11-12T04:01:30.808Z,13.80
2022-11-12T04:03:58.795Z,12.85
2022-11-12T04:06:45.083Z,13.93
2022-11-12T04:09:12.920Z,13.20
2022-11-12T04:11:40.574Z,12.60
2022-11-12T04:14:08.247Z,13.73
2022-11-12T04:16:54.407Z,13.20
2022-11-12T04:19:40.513Z,13.25
2022-11-12T04:22:10.807Z,12.70
2022-11-12T04:24:59.755Z,13.75
2022-11-12T04:27:35.269Z,12.32
2022-11-12T04:30:32.182Z,12.80
2022-11-12T04:32:59.856Z,12.95
2022-11-12T04:35:28.506Z,13.02
2022-11-12T04:37:56.396Z,13.88
2022-11-12T04:40:44.872Z,14.55
2022-11-12T04:43:36.953Z,14.02
2022-11-12T04:46:06.294Z,13.60
2022-11-12T04:48:34.357Z,12.68
2022-11-12T04:51:04.043Z,12.40
2022-11-12T04:53:31.948Z,14.77
2022-11-12T04:56:00.695Z,13.75
2022-11-12T04:58:28.674Z,15.02
2022-11-12T05:00:56.567Z,13.85
2022-11-12T05:03:24.238Z,13.68
2022-11-12T05:05:51.901Z,12.93
2022-11-12T05:08:19.516Z,12.98
2022-11-12T05:10:47.119Z,13.13
2022-11-12T05:13:14.751Z,12.63
2022-11-12T05:15:46.384Z,13.90
2022-11-12T05:18:14.020Z,12.98
2022-11-12T05:20:41.690Z,12.73
2022-11-12T05:23:09.353Z,11.88
2022-11-12T05:25:37.402Z,13.60
2022-11-12T05:28:07.011Z,12.57
2022-11-12T05:30:35.073Z,12.05
2022-11-12T05:33:02.690Z,13.20
2022-11-12T05:35:30.283Z,11.98
2022-11-12T05:37:57.903Z,12.18
2022-11-12T05:40:25.517Z,13.23
2022-11-12T05:42:53.180Z,12.63
2022-11-12T05:45:20.814Z,12.95
2022-11-12T05:47:49.064Z,11.88
2022-11-12T05:50:16.749Z,13.50
2022-11-12T05:52:44.434Z,13.50
2022-11-12T05:55:12.102Z,13.02
2022-11-12T05:57:39.728Z,13.73
2022-11-12T06:00:08.172Z,14.70
2022-11-12T06:02:35.840Z,13.93
2022-11-12T06:05:03.500Z,13.20
2022-11-12T06:07:31.179Z,13.93
2022-11-12T06:09:58.799Z,13.25
2022-11-12T06:12:26.398Z,14.30
2022-11-12T06:14:54.007Z,13.35
2022-11-12T06:17:22.549Z,13.02
2022-11-12T06:19:50.188Z,13.52
2022-11-12T06:22:17.776Z,14.68
2022-11-12T06:24:45.421Z,12.57
2022-11-12T06:27:13.060Z,14.10
2022-11-12T06:29:40.744Z,12.90
2022-11-12T06:32:08.345Z,11.73
2022-11-12T06:34:35.965Z,12.90
2022-11-12T06:37:03.576Z,12.30
2022-11-12T06:39:31.231Z,13.07
2022-11-12T06:41:58.921Z,13.25
2022-11-12T06:44:26.659Z,12.98
2022-11-12T06:46:54.318Z,11.80
2022-11-12T06:49:21.966Z,12.40
2022-11-12T06:51:51.647Z,13.65
2022-11-12T06:54:19.318Z,12.45
2022-11-12T06:56:46.940Z,12.43
2022-11-12T06:59:14.650Z,13.73
2022-11-12T07:01:42.355Z,12.63
2022-11-12T07:04:11.721Z,13.52
2022-11-12T07:06:39.489Z,13.07
2022-11-12T07:09:07.411Z,12.35
2022-11-12T07:11:35.223Z,12.37
2022-11-12T07:14:02.915Z,13.10
2022-11-12T07:16:30.490Z,13.00
2022-11-12T07:18:58.110Z,12.20
2022-11-12T07:21:26.061Z,13.02
2022-11-12T07:23:53.989Z,12.45
2022-11-12T07:26:23.868Z,13.55
2022-11-12T07:28:53.582Z,12.75
2022-11-12T07:31:21.894Z,12.73
2022-11-12T07:33:50.628Z,12.57
2022-11-12T07:36:20.518Z,12.80
2022-11-12T07:38:48.862Z,11.18
2022-11-12T07:41:19.483Z,12.15
2022-11-12T07:43:49.323Z,11.43
2022-11-12T07:46:25.253Z,13.25
2022-11-12T07:48:54.250Z,10.88
2022-11-12T07:51:27.977Z,12.82
2022-11-12T07:53:59.502Z,11.52
2022-11-12T07:56:29.736Z,13.05
2022-11-12T07:58:57.455Z,13.02
2022-11-12T08:01:41.765Z,11.73
2022-11-12T08:04:11.547Z,11.63
2022-11-12T08:06:39.970Z,11.60
2022-11-12T08:09:09.607Z,12.70
2022-11-12T08:11:37.301Z,11.93
2022-11-12T08:14:04.946Z,11.98
2022-11-12T08:16:32.594Z,13.43
2022-11-12T08:19:00.393Z,10.70
2022-11-12T08:21:28.121Z,11.82
2022-11-12T08:23:55.767Z,11.25
2022-11-12T08:26:23.593Z,11.25
2022-11-12T08:28:51.267Z,11.00
2022-11-12T08:31:22.161Z,10.52
2022-11-12T08:33:50.254Z,10.15
2022-11-12T08:36:19.343Z,9.20
2022-11-12T08:38:47.297Z,9.23
2022-11-12T08:41:16.675Z,9.50
2022-11-12T08:43:44.486Z,9.18
2022-11-12T08:46:12.144Z,10.73
2022-11-12T08:48:41.222Z,9.75
2022-11-12T08:51:09.338Z,10.52
2022-11-12T08:53:37.246Z,8.80
2022-11-12T08:56:05.173Z,9.02
2022-11-12T08:58:32.824Z,9.15
2022-11-12T09:01:08.936Z,9.65
2022-11-12T09:03:36.588Z,8.93
2022-11-12T09:06:05.986Z,8.65
2022-11-12T09:08:36.339Z,8.35
2022-11-12T09:11:04.914Z,8.00
2022-11-12T09:13:32.977Z,9.07
2022-11-12T09:16:02.779Z,8.52
2022-11-12T09:18:31.023Z,8.52
2022-11-12T09:21:05.854Z,7.85
2022-11-12T09:23:35.841Z,9.15
2022-11-12T09:26:04.692Z,8.25
2022-11-12T09:28:32.743Z,8.40
2022-11-12T09:31:00.750Z,9.02
2022-11-12T09:33:32.406Z,8.98
2022-11-12T09:36:04.627Z,8.30
2022-11-12T09:38:32.939Z,8.88
2022-11-12T09:41:12.174Z,8.80
2022-11-12T09:43:53.249Z,8.20
2022-11-12T09:46:32.356Z,7.45
2022-11-12T09:49:23.055Z,8.10
2022-11-12T09:52:02.525Z,8.13
2022-11-12T09:54:33.780Z,7.57
2022-11-12T09:57:02.148Z,7.65
2022-11-12T09:59:35.642Z,7.65
2022-11-12T10:02:46.679Z,8.70
2022-11-12T10:05:17.215Z,8.07
2022-11-12T10:07:58.532Z,8.85
2022-11-12T10:10:56.748Z,8.82
2022-11-12T10:13:59.682Z,7.95
2022-11-12T10:16:45.769Z,7.28
2022-11-12T10:19:13.336Z,8.65
2022-11-12T10:22:19.453Z,8.50
2022-11-12T10:24:49.480Z,7.95
2022-11-12T10:27:22.937Z,8.00
2022-11-12T10:30:00.528Z,8.52
2022-11-12T10:32:28.715Z,7.72
2022-11-12T10:34:56.376Z,8.57
2022-11-12T10:37:42.582Z,7.82
2022-11-12T10:40:40.985Z,7.43
2022-11-12T10:43:17.648Z,8.73
2022-11-12T10:45:47.114Z,8.10
2022-11-12T10:48:41.125Z,8.13
2022-11-12T10:51:23.055Z,8.45
2022-11-12T10:53:50.689Z,9.25
2022-11-12T10:56:30.824Z,9.73
2022-11-12T10:59:16.655Z,10.55
2022-11-12T11:01:46.488Z,9.93
2022-11-12T11:04:30.284Z,9.30
2022-11-12T11:07:08.395Z,9.25
2022-11-12T11:09:36.051Z,8.40
2022-11-12T11:12:03.799Z,8.40
2022-11-12T11:14:34.145Z,8.82
2022-11-12T11:17:09.615Z,9.77
2022-11-12T11:19:40.281Z,9.32
2022-11-12T11:22:20.286Z,8.98
2022-11-12T11:25:15.793Z,8.90
2022-11-12T11:28:11.085Z,10.10
2022-11-12T11:30:49.917Z,10.05
2022-11-12T11:33:36.057Z,8.90
2022-11-12T11:36:23.175Z,9.02
2022-11-12T11:39:05.604Z,10.20
2022-11-12T11:41:35.895Z,10.25
2022-11-12T11:44:34.639Z,8.38
2022-11-12T11:47:38.576Z,9.48
2022-11-12T11:50:34.349Z,9.40
2022-11-12T11:53:44.733Z,9.32
2022-11-12T11:56:28.226Z,9.30
2022-11-12T11:59:47.674Z,8.95
2022-11-12T12:02:44.595Z,9.77
2022-11-12T12:05:24.243Z,10.63
2022-11-12T12:08:18.375Z,10.13
2022-11-12T12:11:13.820Z,9.65
2022-11-12T12:14:07.413Z,10.07
2022-11-12T12:16:47.288Z,9.68
2022-11-12T12:19:36.201Z,10.48
2022-11-12T12:22:06.840Z,10.27
2022-11-12T12:24:46.167Z,10.63
2022-11-12T12:27:21.265Z,9.95
2022-11-12T12:29:54.828Z,9.13
2022-11-12T12:32:28.901Z,8.50
2022-11-12T12:35:38.005Z,8.98
2022-11-12T12:38:15.531Z,9.10
2022-11-12T12:41:00.041Z,9.95
2022-11-12T12:43:40.559Z,8.98
2022-11-12T12:46:12.116Z,8.55
2022-11-12T12:48:43.947Z,9.50
2022-11-12T12:51:11.982Z,8.65
2022-11-12T12:53:39.857Z,9.00
2022-11-12T12:56:28.795Z,9.63
2022-11-12T12:58:56.540Z,9.30
2022-11-12T13:01:24.154Z,10.40
2022-11-12T13:03:54.988Z,10.55
2022-11-12T13:06:23.007Z,11.15
2022-11-12T13:08:58.241Z,9.50
2022-11-12T13:12:02.575Z,10.18
2022-11-12T13:14:35.847Z,9.40
2022-11-12T13:17:04.873Z,9.68
2022-11-12T13:19:36.344Z,8.70
2022-11-12T13:22:19.339Z,8.95
2022-11-12T13:25:25.994Z,9.48
2022-11-12T13:27:53.560Z,8.18
2022-11-12T13:30:23.934Z,8.05
2022-11-12T13:32:51.652Z,7.68
2022-11-12T13:35:25.055Z,8.35
2022-11-12T13:38:13.862Z,7.82
2022-11-12T13:40:47.957Z,7.45
2022-11-12T13:43:40.117Z,7.87
2022-11-12T13:46:07.709Z,7.43
2022-11-12T13:48:40.819Z,8.27
2022-11-12T13:51:14.322Z,7.15
2022-11-12T13:53:41.998Z,7.97
2022-11-12T13:56:12.584Z,6.65
2022-11-12T13:58:40.953Z,7.97
2022-11-12T14:01:09.076Z,7.05
2022-11-12T14:03:42.939Z,7.43
2022-11-12T14:06:30.584Z,6.65
2022-11-12T14:09:04.282Z,6.90
2022-11-12T14:12:05.731Z,6.82
2022-11-12T14:14:46.437Z,6.70
2022-11-12T14:17:32.721Z,6.60
2022-11-12T14:20:28.636Z,5.80
2022-11-12T14:22:56.391Z,6.78
2022-11-12T14:25:28.759Z,6.53
2022-11-12T14:27:57.463Z,5.87
2022-11-12T14:30:26.424Z,6.07
2022-11-12T14:32:59.640Z,6.30
2022-11-12T14:35:40.128Z,5.95
2022-11-12T14:38:10.891Z,5.97
2022-11-12T14:40:44.463Z,6.50
2022-11-12T14:43:27.345Z,5.95
2022-11-12T14:45:56.967Z,5.87
2022-11-12T14:48:24.992Z,6.75
2022-11-12T14:51:04.030Z,6.40
2022-11-12T14:53:36.048Z,6.25
2022-11-12T14:56:07.977Z,6.70
2022-11-12T14:58:36.401Z,6.55
2022-11-12T15:04:20.484Z,5.37
2022-11-12T15:06:56.172Z,5.28
2022-11-12T15:09:53.545Z,6.12
2022-11-12T15:12:27.956Z,5.15
2022-11-12T15:15:08.408Z,5.60
2022-11-12T15:17:38.238Z,5.12
2022-11-12T15:20:23.964Z,5.60
2022-11-12T15:22:53.349Z,5.22
2022-11-12T15:25:31.292Z,5.05
2022-11-12T15:28:23.244Z,5.85
2022-11-12T15:31:27.439Z,5.30
2022-11-12T15:33:57.365Z,6.03
2022-11-12T15:36:25.847Z,5.62
2022-11-12T15:38:56.646Z,6.22
2022-11-12T15:41:29.598Z,5.97
2022-11-12T15:43:58.361Z,6.70
2022-11-12T15:46:26.004Z,6.12
2022-11-12T15:48:56.157Z,6.62
2022-11-12T15:51:23.993Z,6.53
2022-11-12T15:53:51.926Z,8.77
2022-11-12T15:56:23.091Z,7.00
2022-11-12T15:58:50.766Z,6.18
2022-11-12T16:01:18.627Z,6.70
2022-11-12T16:03:46.289Z,6.30
2022-11-12T16:06:14.169Z,6.47
2022-11-12T16:08:41.832Z,5.95
2022-11-12T16:11:31.499Z,6.90
2022-11-12T16:13:59.173Z,6.47
2022-11-12T16:16:27.514Z,6.53
2022-11-12T16:18:55.404Z,6.25
2022-11-12T16:21:24.274Z,7.78
2022-11-12T16:23:51.865Z,8.02
2022-11-12T16:26:31.890Z,6.45
2022-11-12T16:28:59.684Z,6.57
2022-11-12T16:31:27.597Z,7.32
2022-11-12T16:33:55.244Z,6.87
2022-11-12T16:36:22.884Z,8.05
2022-11-12T16:38:50.506Z,8.52
2022-11-12T16:41:18.502Z,7.00
2022-11-12T16:43:46.200Z,6.93
2022-11-12T16:46:27.181Z,7.80
2022-11-12T16:48:55.327Z,7.35
2022-11-12T16:51:24.227Z,7.55
2022-11-12T16:53:51.965Z,7.70
2022-11-12T16:56:21.970Z,7.47
2022-11-12T16:58:50.694Z,7.18
2022-11-12T17:01:27.161Z,7.43
2022-11-12T17:03:56.724Z,7.53
2022-11-12T17:06:33.326Z,8.30
2022-11-12T17:09:01.129Z,8.63
2022-11-12T17:11:28.807Z,7.95
2022-11-12T17:13:56.483Z,9.60
2022-11-12T17:16:24.171Z,10.10
2022-11-12T17:18:55.427Z,9.43
2022-11-12T17:21:23.712Z,8.45
2022-11-12T17:23:52.065Z,7.75
2022-11-12T17:26:21.581Z,9.23
2022-11-12T17:28:54.027Z,8.05
2022-11-12T17:31:25.666Z,8.05
2022-11-12T17:33:54.704Z,8.60
2022-11-12T17:36:25.157Z,8.60
2022-11-12T17:39:00.230Z,8.02
2022-11-12T17:41:32.176Z,9.60
2022-11-12T17:44:01.490Z,9.23
2022-11-12T17:46:29.829Z,9.20
2022-11-12T17:48:58.006Z,8.18
2022-11-12T17:51:28.188Z,8.90
2022-11-12T17:53:56.228Z,8.75
2022-11-12T17:56:25.016Z,8.52
2022-11-12T17:58:53.576Z,8.73
2022-11-12T18:01:26.512Z,8.88
2022-11-12T18:03:56.270Z,10.32
2022-11-12T18:06:29.664Z,9.73
2022-11-12T18:09:09.239Z,10.27
2022-11-12T18:11:49.757Z,10.13
2022-11-12T18:14:17.972Z,10.55
2022-11-12T18:16:46.193Z,10.88
2022-11-12T18:19:14.084Z,10.63
2022-11-12T18:21:42.071Z,11.52
2022-11-12T18:24:16.103Z,12.13
2022-11-12T18:26:45.225Z,11.38
2022-11-12T18:29:13.622Z,10.85
2022-11-12T18:31:41.744Z,10.70
2022-11-12T18:34:14.589Z,11.12
2022-11-12T18:36:42.344Z,10.95
2022-11-12T18:39:10.181Z,9.57
2022-11-12T18:41:38.010Z,10.52
2022-11-12T18:44:05.845Z,10.10
2022-11-12T18:46:33.455Z,9.57
2022-11-12T18:49:01.125Z,10.50
2022-11-12T18:51:28.959Z,9.25
2022-11-12T18:53:56.647Z,9.95
2022-11-12T18:56:24.320Z,9.93
2022-11-12T18:58:52.078Z,10.27
2022-11-12T19:01:22.558Z,10.35
2022-11-12T19:03:54.615Z,9.50
2022-11-12T19:06:23.435Z,10.10
2022-11-12T19:08:51.897Z,10.63
2022-11-12T19:11:22.835Z,11.35
2022-11-12T19:13:54.735Z,11.45
2022-11-12T19:16:24.281Z,10.45
2022-11-12T19:18:53.343Z,9.75
2022-11-12T19:21:26.611Z,10.57
2022-11-12T19:23:56.000Z,11.20
2022-11-12T19:26:24.583Z,10.63
2022-11-12T19:28:52.240Z,10.48
2022-11-12T19:31:25.620Z,11.43
2022-11-12T19:33:53.686Z,11.02
2022-11-12T19:36:24.331Z,10.90
2022-11-12T19:38:56.753Z,10.65
2022-11-12T19:41:25.350Z,10.70
2022-11-12T19:43:53.889Z,10.80
2022-11-12T19:46:22.028Z,10.60
2022-11-12T19:48:50.118Z,10.00
2022-11-12T19:51:17.775Z,10.05
2022-11-12T19:53:45.650Z,9.85
2022-11-12T19:56:18.081Z,11.38
2022-11-12T19:58:47.203Z,10.00
2022-11-12T20:01:18.269Z,9.82
2022-11-12T20:03:46.279Z,10.68
2022-11-12T20:06:20.020Z,9.95
2022-11-12T20:08:48.257Z,10.57
2022-11-12T20:11:17.301Z,11.77
2022-11-12T20:13:44.899Z,10.45
2022-11-12T20:16:23.831Z,11.38
2022-11-12T20:18:56.887Z,9.68
2022-11-12T20:21:25.373Z,9.85
2022-11-12T20:23:53.183Z,10.38
2022-11-12T20:26:20.908Z,10.70
2022-11-12T20:28:48.835Z,8.60
2022-11-12T20:31:21.731Z,10.00
2022-11-12T20:33:51.523Z,8.60
2022-11-12T20:36:21.895Z,9.20
2022-11-12T20:38:54.529Z,8.85
2022-11-12T20:41:27.051Z,10.13
2022-11-12T20:43:56.213Z,9.40
2022-11-12T20:46:24.409Z,8.95
2022-11-12T20:48:52.392Z,9.85
2022-11-12T20:51:24.713Z,9.80
2022-11-12T20:54:00.407Z,8.75
2022-11-12T20:56:31.129Z,9.00
2022-11-12T20:59:00.254Z,9.15
2022-11-12T21:01:29.808Z,8.32
2022-11-12T21:03:58.542Z,8.57
2022-11-12T21:06:27.793Z,8.27
2022-11-12T21:08:57.991Z,8.05
2022-11-12T21:11:25.623Z,8.05
2022-11-12T21:13:53.332Z,8.48
2022-11-12T21:16:21.089Z,7.97
2022-11-12T21:18:48.836Z,7.87
2022-11-12T21:21:20.236Z,8.60
2022-11-12T21:23:50.927Z,8.45
2022-11-12T21:26:20.699Z,9.00
2022-11-12T21:28:54.037Z,7.90
2022-11-12T21:31:24.127Z,8.98
2022-11-12T21:34:01.262Z,8.40
2022-11-12T21:36:29.873Z,7.72
2022-11-12T21:38:57.658Z,6.87
2022-11-12T21:41:28.277Z,7.15
2022-11-12T21:43:56.285Z,7.35
2022-11-12T21:46:29.403Z,7.37
2022-11-12T21:48:58.541Z,7.10
2022-11-12T21:51:28.482Z,6.87
2022-11-12T21:54:03.908Z,7.10
2022-11-12T21:56:32.525Z,6.72
2022-11-12T21:59:05.092Z,7.82
2022-11-12T22:01:35.194Z,7.30
2022-11-12T22:04:07.887Z,6.47
2022-11-12T22:06:39.026Z,6.82
2022-11-12T22:09:07.407Z,6.78
2022-11-12T22:11:35.242Z,6.12
2022-11-12T22:14:03.274Z,6.18
2022-11-12T22:16:31.054Z,6.60
2022-11-12T22:19:00.467Z,6.68
2022-11-12T22:21:39.436Z,6.37
2022-11-12T22:24:08.249Z,7.05
2022-11-12T22:26:35.917Z,6.15
2022-11-12T22:29:03.659Z,5.97
2022-11-12T22:31:33.527Z,5.97
2022-11-12T22:34:03.608Z,6.10
2022-11-12T22:36:32.851Z,6.12
2022-11-12T22:39:00.542Z,6.18
2022-11-12T22:41:30.748Z,5.90
2022-11-12T22:44:01.252Z,6.15
2022-11-12T22:46:31.591Z,6.20
2022-11-12T22:49:00.231Z,5.57
2022-11-12T22:51:30.200Z,5.90
2022-11-12T22:54:04.066Z,5.68
2022-11-12T22:56:34.378Z,5.45
2022-11-12T22:59:06.307Z,5.95
2022-11-12T23:01:36.273Z,5.68
2022-11-12T23:04:06.261Z,6.00
2022-11-12T23:06:34.408Z,5.95
2022-11-12T23:09:02.717Z,5.37
2022-11-12T23:11:30.781Z,5.12
2022-11-12T23:13:58.545Z,5.60
2022-11-12T23:16:34.228Z,5.90
2022-11-12T23:19:01.981Z,5.80
2022-11-12T23:21:30.950Z,4.70
2022-11-12T23:24:00.073Z,5.35
2022-11-12T23:26:32.133Z,5.40
2022-11-12T23:29:00.289Z,5.78
2022-11-12T23:31:30.286Z,5.28
2022-11-12T23:34:00.128Z,5.12
2022-11-12T23:36:28.853Z,5.03
2022-11-12T23:38:57.915Z,5.15
2022-11-12T23:41:27.355Z,4.78
2022-11-12T23:43:56.159Z,4.78
2022-11-12T23:46:24.625Z,6.20
2022-11-12T23:48:52.677Z,5.12
2022-11-12T23:51:22.738Z,5.22
2022-11-12T23:53:50.853Z,4.70
2022-11-12T23:56:20.940Z,4.95
2022-11-12T23:58:48.955Z,4.70
